sensor_id;sensor_type;location;lat;lon;timestamp;temperature;humidity
66422;DHT22;53228;51.380;0.098;2022-10-23T00:01:41;15.30;99.90
66422;DHT22;53228;51.380;0.098;2022-10-23T00:04:14;15.30;99.90
66422;DHT22;53228;51.380;0.098;2022-10-23T00:06:43;15.30;99.90
66422;DHT22;53228;51.380;0.098;2022-10-23T00:09:13;15.30;99.90
66422;DHT22;53228;51.380;0.098;2022-10-23T00:11:43;16.30;99.90
66422;DHT22;53228;51.380;0.098;2022-10-23T00:14:15;15.30;99.90
66422;DHT22;53228;51.380;0.098;2022-10-23T00:16:43;15.30;99.90
66422;DHT22;53228;51.380;0.098;2022-10-23T00:19:11;15.30;99.90
66422;DHT22;53228;51.380;0.098;2022-10-23T00:21:39;15.30;99.90
66422;DHT22;53228;51.380;0.098;2022-10-23T00:24:07;15.30;99.90
66422;DHT22;53228;51.380;0.098;2022-10-23T00:26:36;15.30;99.90
66422;DHT22;53228;51.380;0.098;2022-10-23T00:29:07;15.40;99.90
66422;DHT22;53228;51.380;0.098;2022-10-23T00:31:35;15.30;99.90
66422;DHT22;53228;51.380;0.098;2022-10-23T00:34:03;17.40;99.90
66422;DHT22;53228;51.380;0.098;2022-10-23T00:36:34;15.40;99.90
66422;DHT22;53228;51.380;0.098;2022-10-23T00:39:03;15.40;99.90
66422;DHT22;53228;51.380;0.098;2022-10-23T00:41:30;15.40;99.90
66422;DHT22;53228;51.380;0.098;2022-10-23T00:44:08;15.40;99.90
66422;DHT22;53228;51.380;0.098;2022-10-23T00:46:37;15.40;99.90
66422;DHT22;53228;51.380;0.098;2022-10-23T00:49:06;15.50;99.90
66422;DHT22;53228;51.380;0.098;2022-10-23T00:51:56;15.50;99.90
66422;DHT22;53228;51.380;0.098;2022-10-23T00:54:27;15.50;99.90
66422;DHT22;53228;51.380;0.098;2022-10-23T00:56:58;15.50;99.90
66422;DHT22;53228;51.380;0.098;2022-10-23T00:59:27;15.50;99.90
66422;DHT22;53228;51.380;0.098;2022-10-23T01:01:54;15.50;99.90
66422;DHT22;53228;51.380;0.098;2022-10-23T01:04:24;15.50;99.90
66422;DHT22;53228;51.380;0.098;2022-10-23T01:09:54;15.60;99.90
66422;DHT22;53228;51.380;0.098;2022-10-23T01:12:59;15.60;99.90
66422;DHT22;53228;51.380;0.098;2022-10-23T01:18:29;15.50;99.90
66422;DHT22;53228;51.380;0.098;2022-10-23T01:20:59;15.60;99.90
66422;DHT22;53228;51.380;0.098;2022-10-23T01:32:05;15.60;99.90
66422;DHT22;53228;51.380;0.098;2022-10-23T01:37:44;15.60;99.90
66422;DHT22;53228;51.380;0.098;2022-10-23T01:43:04;15.60;99.90
66422;DHT22;53228;51.380;0.098;2022-10-23T01:45:35;15.60;99.90
66422;DHT22;53228;51.380;0.098;2022-10-23T01:48:09;15.60;99.90
66422;DHT22;53228;51.380;0.098;2022-10-23T01:50:40;15.70;99.90
66422;DHT22;53228;51.380;0.098;2022-10-23T01:53:08;15.70;99.90
66422;DHT22;53228;51.380;0.098;2022-10-23T01:55:37;15.60;99.90
66422;DHT22;53228;51.380;0.098;2022-10-23T01:58:10;15.60;99.90
66422;DHT22;53228;51.380;0.098;2022-10-23T02:00:41;15.60;99.90
66422;DHT22;53228;51.380;0.098;2022-10-23T02:03:12;15.50;99.90
66422;DHT22;53228;51.380;0.098;2022-10-23T02:05:42;15.50;99.90
66422;DHT22;53228;51.380;0.098;2022-10-23T02:08:11;15.50;99.90
66422;DHT22;53228;51.380;0.098;2022-10-23T02:10:54;15.60;99.90
66422;DHT22;53228;51.380;0.098;2022-10-23T02:13:32;15.60;99.90
66422;DHT22;53228;51.380;0.098;2022-10-23T02:16:48;15.60;99.90
66422;DHT22;53228;51.380;0.098;2022-10-23T02:24:34;15.60;99.90
66422;DHT22;53228;51.380;0.098;2022-10-23T02:27:20;15.60;99.90
66422;DHT22;53228;51.380;0.098;2022-10-23T02:29:56;15.60;99.90
66422;DHT22;53228;51.380;0.098;2022-10-23T02:32:28;15.60;99.90
66422;DHT22;53228;51.380;0.098;2022-10-23T02:34:55;15.60;99.90
66422;DHT22;53228;51.380;0.098;2022-10-23T02:37:23;15.60;99.90
66422;DHT22;53228;51.380;0.098;2022-10-23T02:39:53;15.60;99.90
66422;DHT22;53228;51.380;0.098;2022-10-23T02:42:38;15.60;99.90
66422;DHT22;53228;51.380;0.098;2022-10-23T02:45:34;15.60;99.90
66422;DHT22;53228;51.380;0.098;2022-10-23T02:48:12;15.60;99.90
66422;DHT22;53228;51.380;0.098;2022-10-23T02:50:52;15.60;99.90
66422;DHT22;53228;51.380;0.098;2022-10-23T02:53:49;15.70;99.90
66422;DHT22;53228;51.380;0.098;2022-10-23T02:59:36;15.60;99.90
66422;DHT22;53228;51.380;0.098;2022-10-23T03:02:22;15.60;99.90
66422;DHT22;53228;51.380;0.098;2022-10-23T03:04:53;15.60;99.90
66422;DHT22;53228;51.380;0.098;2022-10-23T03:07:25;15.60;99.90
66422;DHT22;53228;51.380;0.098;2022-10-23T03:10:00;15.60;99.90
66422;DHT22;53228;51.380;0.098;2022-10-23T03:12:30;15.60;99.90
66422;DHT22;53228;51.380;0.098;2022-10-23T03:14:58;15.50;99.90
66422;DHT22;53228;51.380;0.098;2022-10-23T03:17:26;15.50;99.90
66422;DHT22;53228;51.380;0.098;2022-10-23T03:19:57;15.60;99.90
66422;DHT22;53228;51.380;0.098;2022-10-23T03:22:25;15.50;99.90
66422;DHT22;53228;51.380;0.098;2022-10-23T03:24:52;15.50;99.90
66422;DHT22;53228;51.380;0.098;2022-10-23T03:27:20;15.50;99.90
66422;DHT22;53228;51.380;0.098;2022-10-23T03:32:16;15.50;99.90
66422;DHT22;53228;51.380;0.098;2022-10-23T03:34:44;15.50;99.90
66422;DHT22;53228;51.380;0.098;2022-10-23T03:37:11;15.50;99.90
66422;DHT22;53228;51.380;0.098;2022-10-23T03:39:39;15.50;99.90
66422;DHT22;53228;51.380;0.098;2022-10-23T03:42:06;15.50;99.90
66422;DHT22;53228;51.380;0.098;2022-10-23T03:44:34;15.40;99.90
66422;DHT22;53228;51.380;0.098;2022-10-23T03:47:03;15.50;99.90
66422;DHT22;53228;51.380;0.098;2022-10-23T03:49:30;15.50;99.90
66422;DHT22;53228;51.380;0.098;2022-10-23T03:52:03;15.50;99.90
66422;DHT22;53228;51.380;0.098;2022-10-23T03:54:31;15.40;99.90
66422;DHT22;53228;51.380;0.098;2022-10-23T03:57:00;15.40;99.90
66422;DHT22;53228;51.380;0.098;2022-10-23T03:59:28;15.40;99.90
66422;DHT22;53228;51.380;0.098;2022-10-23T04:01:58;15.30;99.90
66422;DHT22;53228;51.380;0.098;2022-10-23T04:04:25;15.50;99.90
66422;DHT22;53228;51.380;0.098;2022-10-23T04:06:53;15.50;99.90
66422;DHT22;53228;51.380;0.098;2022-10-23T04:09:21;15.40;99.90
66422;DHT22;53228;51.380;0.098;2022-10-23T04:11:48;15.40;99.90
66422;DHT22;53228;51.380;0.098;2022-10-23T04:14:16;15.40;99.90
66422;DHT22;53228;51.380;0.098;2022-10-23T04:16:44;15.40;99.90
66422;DHT22;53228;51.380;0.098;2022-10-23T04:19:11;15.30;99.90
66422;DHT22;53228;51.380;0.098;2022-10-23T04:21:40;15.40;99.90
66422;DHT22;53228;51.380;0.098;2022-10-23T04:24:08;15.40;99.90
66422;DHT22;53228;51.380;0.098;2022-10-23T04:26:37;15.50;99.90
66422;DHT22;53228;51.380;0.098;2022-10-23T04:29:04;15.40;99.90
66422;DHT22;53228;51.380;0.098;2022-10-23T04:31:32;15.50;99.90
66422;DHT22;53228;51.380;0.098;2022-10-23T04:33:59;15.50;99.90
66422;DHT22;53228;51.380;0.098;2022-10-23T04:36:31;15.60;99.90
66422;DHT22;53228;51.380;0.098;2022-10-23T04:39:06;15.60;99.90
66422;DHT22;53228;51.380;0.098;2022-10-23T04:41:35;15.60;99.90
66422;DHT22;53228;51.380;0.098;2022-10-23T04:44:05;15.70;99.90
66422;DHT22;53228;51.380;0.098;2022-10-23T04:46:36;15.70;99.90
66422;DHT22;53228;51.380;0.098;2022-10-23T04:51:48;15.80;99.90
66422;DHT22;53228;51.380;0.098;2022-10-23T04:54:39;15.80;99.90
66422;DHT22;53228;51.380;0.098;2022-10-23T04:57:22;15.80;99.90
66422;DHT22;53228;51.380;0.098;2022-10-23T05:00:12;15.90;99.90
66422;DHT22;53228;51.380;0.098;2022-10-23T05:02:44;15.90;99.90
66422;DHT22;53228;51.380;0.098;2022-10-23T05:05:14;15.90;99.90
66422;DHT22;53228;51.380;0.098;2022-10-23T05:07:53;15.90;99.90
66422;DHT22;53228;51.380;0.098;2022-10-23T05:10:31;16.00;99.90
66422;DHT22;53228;51.380;0.098;2022-10-23T05:13:08;16.00;99.90
66422;DHT22;53228;51.380;0.098;2022-10-23T05:15:35;16.00;99.90
66422;DHT22;53228;51.380;0.098;2022-10-23T05:18:12;16.10;99.90
66422;DHT22;53228;51.380;0.098;2022-10-23T05:20:43;16.10;99.90
66422;DHT22;53228;51.380;0.098;2022-10-23T05:23:13;16.20;99.90
66422;DHT22;53228;51.380;0.098;2022-10-23T05:25:51;16.30;99.90
66422;DHT22;53228;51.380;0.098;2022-10-23T05:28:19;16.30;99.90
66422;DHT22;53228;51.380;0.098;2022-10-23T05:30:47;16.30;99.90
66422;DHT22;53228;51.380;0.098;2022-10-23T05:33:16;16.30;99.90
66422;DHT22;53228;51.380;0.098;2022-10-23T05:35:44;16.40;99.90
66422;DHT22;53228;51.380;0.098;2022-10-23T05:38:14;16.40;99.90
66422;DHT22;53228;51.380;0.098;2022-10-23T05:40:42;16.40;99.90
66422;DHT22;53228;51.380;0.098;2022-10-23T05:43:15;16.40;99.90
66422;DHT22;53228;51.380;0.098;2022-10-23T05:45:49;16.40;99.90
66422;DHT22;53228;51.380;0.098;2022-10-23T05:48:33;16.50;99.90
66422;DHT22;53228;51.380;0.098;2022-10-23T05:51:30;16.50;99.90
66422;DHT22;53228;51.380;0.098;2022-10-23T05:54:24;16.50;99.90
66422;DHT22;53228;51.380;0.098;2022-10-23T05:57:11;16.50;99.90
66422;DHT22;53228;51.380;0.098;2022-10-23T05:59:44;16.50;99.90
66422;DHT22;53228;51.380;0.098;2022-10-23T06:02:20;16.40;99.90
66422;DHT22;53228;51.380;0.098;2022-10-23T06:04:53;16.50;99.90
66422;DHT22;53228;51.380;0.098;2022-10-23T06:07:39;16.40;99.90
66422;DHT22;53228;51.380;0.098;2022-10-23T06:10:09;16.70;99.90
66422;DHT22;53228;51.380;0.098;2022-10-23T06:12:41;16.40;99.90
66422;DHT22;53228;51.380;0.098;2022-10-23T06:15:13;16.50;99.90
66422;DHT22;53228;51.380;0.098;2022-10-23T06:18:01;16.50;99.90
66422;DHT22;53228;51.380;0.098;2022-10-23T06:20:34;16.50;99.90
66422;DHT22;53228;51.380;0.098;2022-10-23T06:23:09;16.40;99.90
66422;DHT22;53228;51.380;0.098;2022-10-23T06:26:03;16.40;99.90
66422;DHT22;53228;51.380;0.098;2022-10-23T06:28:39;16.40;99.90
66422;DHT22;53228;51.380;0.098;2022-10-23T06:31:09;16.40;99.90
66422;DHT22;53228;51.380;0.098;2022-10-23T06:33:39;16.40;99.90
66422;DHT22;53228;51.380;0.098;2022-10-23T06:36:08;16.30;99.90
66422;DHT22;53228;51.380;0.098;2022-10-23T06:38:39;16.30;99.90
66422;DHT22;53228;51.380;0.098;2022-10-23T06:41:13;16.30;99.90
66422;DHT22;53228;51.380;0.098;2022-10-23T06:43:43;16.20;99.90
66422;DHT22;53228;51.380;0.098;2022-10-23T06:46:17;16.30;99.90
66422;DHT22;53228;51.380;0.098;2022-10-23T06:49:14;16.20;99.90
66422;DHT22;53228;51.380;0.098;2022-10-23T06:51:47;16.10;99.90
66422;DHT22;53228;51.380;0.098;2022-10-23T06:54:19;15.90;99.90
66422;DHT22;53228;51.380;0.098;2022-10-23T06:56:50;15.90;99.90
66422;DHT22;53228;51.380;0.098;2022-10-23T06:59:22;15.70;99.90
66422;DHT22;53228;51.380;0.098;2022-10-23T07:01:51;15.60;99.90
66422;DHT22;53228;51.380;0.098;2022-10-23T07:04:23;15.60;99.90
66422;DHT22;53228;51.380;0.098;2022-10-23T07:06:55;15.60;99.90
66422;DHT22;53228;51.380;0.098;2022-10-23T07:09:28;15.60;99.90
66422;DHT22;53228;51.380;0.098;2022-10-23T07:11:56;15.50;99.90
66422;DHT22;53228;51.380;0.098;2022-10-23T07:14:35;15.40;99.90
66422;DHT22;53228;51.380;0.098;2022-10-23T07:17:03;15.50;99.90
66422;DHT22;53228;51.380;0.098;2022-10-23T07:19:30;15.50;99.90
66422;DHT22;53228;51.380;0.098;2022-10-23T07:22:04;15.90;99.90
66422;DHT22;53228;51.380;0.098;2022-10-23T07:24:31;15.50;99.90
66422;DHT22;53228;51.380;0.098;2022-10-23T07:27:11;15.50;99.90
66422;DHT22;53228;51.380;0.098;2022-10-23T07:29:38;15.50;99.90
66422;DHT22;53228;51.380;0.098;2022-10-23T07:32:06;15.60;99.90
66422;DHT22;53228;51.380;0.098;2022-10-23T07:34:59;15.70;99.90
66422;DHT22;53228;51.380;0.098;2022-10-23T07:37:30;15.50;99.90
66422;DHT22;53228;51.380;0.098;2022-10-23T07:40:01;15.50;99.90
66422;DHT22;53228;51.380;0.098;2022-10-23T07:42:31;15.50;99.90
66422;DHT22;53228;51.380;0.098;2022-10-23T07:44:58;15.60;99.90
66422;DHT22;53228;51.380;0.098;2022-10-23T07:47:28;15.60;99.90
66422;DHT22;53228;51.380;0.098;2022-10-23T07:49:55;15.60;99.90
66422;DHT22;53228;51.380;0.098;2022-10-23T07:52:23;15.70;99.90
66422;DHT22;53228;51.380;0.098;2022-10-23T07:55:11;15.70;99.90
66422;DHT22;53228;51.380;0.098;2022-10-23T07:57:46;15.70;99.90
66422;DHT22;53228;51.380;0.098;2022-10-23T08:00:43;15.80;99.90
66422;DHT22;53228;51.380;0.098;2022-10-23T08:03:22;15.80;99.90
66422;DHT22;53228;51.380;0.098;2022-10-23T08:05:51;15.90;99.90
66422;DHT22;53228;51.380;0.098;2022-10-23T08:08:24;16.00;99.90
66422;DHT22;53228;51.380;0.098;2022-10-23T08:10:55;16.10;99.90
66422;DHT22;53228;51.380;0.098;2022-10-23T08:13:27;16.00;99.90
66422;DHT22;53228;51.380;0.098;2022-10-23T08:16:00;16.10;99.90
66422;DHT22;53228;51.380;0.098;2022-10-23T08:26:33;16.20;99.90
66422;DHT22;53228;51.380;0.098;2022-10-23T08:31:35;14.30;99.90
66422;DHT22;53228;51.380;0.098;2022-10-23T08:34:12;16.30;99.90
66422;DHT22;53228;51.380;0.098;2022-10-23T08:36:41;16.30;99.90
66422;DHT22;53228;51.380;0.098;2022-10-23T08:39:14;16.30;99.90
66422;DHT22;53228;51.380;0.098;2022-10-23T08:42:20;16.30;99.90
66422;DHT22;53228;51.380;0.098;2022-10-23T08:44:58;16.30;99.90
66422;DHT22;53228;51.380;0.098;2022-10-23T08:50:31;16.20;99.90
66422;DHT22;53228;51.380;0.098;2022-10-23T08:53:11;16.20;99.90
66422;DHT22;53228;51.380;0.098;2022-10-23T08:55:48;16.20;99.90
66422;DHT22;53228;51.380;0.098;2022-10-23T08:58:44;17.00;99.90
66422;DHT22;53228;51.380;0.098;2022-10-23T09:03:46;16.00;99.90
66422;DHT22;53228;51.380;0.098;2022-10-23T09:06:22;16.00;99.90
66422;DHT22;53228;51.380;0.098;2022-10-23T09:11:57;16.00;99.90
66422;DHT22;53228;51.380;0.098;2022-10-23T09:17:25;16.10;99.90
66422;DHT22;53228;51.380;0.098;2022-10-23T09:20:23;16.10;99.90
66422;DHT22;53228;51.380;0.098;2022-10-23T09:23:03;16.20;99.90
66422;DHT22;53228;51.380;0.098;2022-10-23T09:25:37;16.20;99.90
66422;DHT22;53228;51.380;0.098;2022-10-23T09:28:05;16.30;99.90
66422;DHT22;53228;51.380;0.098;2022-10-23T09:30:35;16.40;99.90
66422;DHT22;53228;51.380;0.098;2022-10-23T09:33:23;16.40;99.90
66422;DHT22;53228;51.380;0.098;2022-10-23T09:35:56;16.40;99.90
66422;DHT22;53228;51.380;0.098;2022-10-23T09:38:35;16.50;99.90
66422;DHT22;53228;51.380;0.098;2022-10-23T09:41:14;16.50;99.90
66422;DHT22;53228;51.380;0.098;2022-10-23T09:43:43;16.50;99.90
66422;DHT22;53228;51.380;0.098;2022-10-23T09:46:11;16.50;99.90
66422;DHT22;53228;51.380;0.098;2022-10-23T09:48:39;16.50;99.90
66422;DHT22;53228;51.380;0.098;2022-10-23T09:51:20;16.50;99.90
66422;DHT22;53228;51.380;0.098;2022-10-23T09:53:51;16.50;99.90
66422;DHT22;53228;51.380;0.098;2022-10-23T09:56:24;16.60;99.90
66422;DHT22;53228;51.380;0.098;2022-10-23T09:59:04;16.60;99.90
66422;DHT22;53228;51.380;0.098;2022-10-23T10:01:46;16.70;99.90
66422;DHT22;53228;51.380;0.098;2022-10-23T10:04:39;16.80;99.90
66422;DHT22;53228;51.380;0.098;2022-10-23T10:07:25;16.90;99.90
66422;DHT22;53228;51.380;0.098;2022-10-23T10:09:59;16.90;99.90
66422;DHT22;53228;51.380;0.098;2022-10-23T10:12:42;17.00;99.90
66422;DHT22;53228;51.380;0.098;2022-10-23T10:18:01;17.10;99.90
66422;DHT22;53228;51.380;0.098;2022-10-23T10:23:36;17.10;99.90
66422;DHT22;53228;51.380;0.098;2022-10-23T10:27:05;17.10;99.90
66422;DHT22;53228;51.380;0.098;2022-10-23T10:32:15;16.90;99.90
66422;DHT22;53228;51.380;0.098;2022-10-23T10:34:54;16.80;99.90
66422;DHT22;53228;51.380;0.098;2022-10-23T10:40:08;16.50;99.90
66422;DHT22;53228;51.380;0.098;2022-10-23T10:45:47;16.30;99.90
66422;DHT22;53228;51.380;0.098;2022-10-23T10:54:57;16.40;99.90
66422;DHT22;53228;51.380;0.098;2022-10-23T10:57:36;16.50;99.90
66422;DHT22;53228;51.380;0.098;2022-10-23T11:00:16;16.60;99.90
66422;DHT22;53228;51.380;0.098;2022-10-23T11:05:42;17.00;99.90
66422;DHT22;53228;51.380;0.098;2022-10-23T11:08:17;17.10;99.90
66422;DHT22;53228;51.380;0.098;2022-10-23T11:10:51;17.20;99.90
66422;DHT22;53228;51.380;0.098;2022-10-23T11:13:34;17.30;99.90
66422;DHT22;53228;51.380;0.098;2022-10-23T11:16:10;17.40;99.90
66422;DHT22;53228;51.380;0.098;2022-10-23T11:18:41;17.40;99.90
66422;DHT22;53228;51.380;0.098;2022-10-23T11:21:29;17.50;99.90
66422;DHT22;53228;51.380;0.098;2022-10-23T11:24:14;17.60;99.90
66422;DHT22;53228;51.380;0.098;2022-10-23T11:38:37;17.80;99.90
66422;DHT22;53228;51.380;0.098;2022-10-23T11:41:19;17.90;99.90
66422;DHT22;53228;51.380;0.098;2022-10-23T11:43:58;17.90;99.90
66422;DHT22;53228;51.380;0.098;2022-10-23T11:46:36;17.90;99.90
66422;DHT22;53228;51.380;0.098;2022-10-23T11:49:18;18.00;99.90
66422;DHT22;53228;51.380;0.098;2022-10-23T11:51:45;18.10;99.90
66422;DHT22;53228;51.380;0.098;2022-10-23T11:56:54;18.30;99.90
66422;DHT22;53228;51.380;0.098;2022-10-23T11:59:31;18.60;99.90
66422;DHT22;53228;51.380;0.098;2022-10-23T12:02:01;18.60;99.90
66422;DHT22;53228;51.380;0.098;2022-10-23T12:04:39;18.70;99.90
66422;DHT22;53228;51.380;0.098;2022-10-23T12:07:25;18.70;99.90
66422;DHT22;53228;51.380;0.098;2022-10-23T12:12:32;18.90;99.90
66422;DHT22;53228;51.380;0.098;2022-10-23T12:17:39;18.90;99.90
66422;DHT22;53228;51.380;0.098;2022-10-23T12:31:14;19.10;99.90
66422;DHT22;53228;51.380;0.098;2022-10-23T12:38:57;19.10;99.90
66422;DHT22;53228;51.380;0.098;2022-10-23T12:41:27;19.20;99.90
66422;DHT22;53228;51.380;0.098;2022-10-23T12:43:57;18.70;99.90
66422;DHT22;53228;51.380;0.098;2022-10-23T12:46:40;19.20;99.90
66422;DHT22;53228;51.380;0.098;2022-10-23T12:49:17;19.10;99.90
66422;DHT22;53228;51.380;0.098;2022-10-23T12:54:24;19.30;99.90
66422;DHT22;53228;51.380;0.098;2022-10-23T12:56:52;19.40;99.90
66422;DHT22;53228;51.380;0.098;2022-10-23T12:59:28;20.50;99.90
66422;DHT22;53228;51.380;0.098;2022-10-23T13:01:59;19.60;99.90
66422;DHT22;53228;51.380;0.098;2022-10-23T13:04:33;19.60;99.90
66422;DHT22;53228;51.380;0.098;2022-10-23T13:08:19;19.60;99.90
66422;DHT22;53228;51.380;0.098;2022-10-23T13:11:13;19.60;99.90
66422;DHT22;53228;51.380;0.098;2022-10-23T13:13:41;19.50;99.90
66422;DHT22;53228;51.380;0.098;2022-10-23T13:16:18;19.40;99.90
66422;DHT22;53228;51.380;0.098;2022-10-23T13:18:46;19.30;99.90
66422;DHT22;53228;51.380;0.098;2022-10-23T13:21:25;19.20;99.90
66422;DHT22;53228;51.380;0.098;2022-10-23T13:23:53;19.10;99.90
66422;DHT22;53228;51.380;0.098;2022-10-23T13:26:38;19.10;99.90
66422;DHT22;53228;51.380;0.098;2022-10-23T13:29:21;19.20;99.90
66422;DHT22;53228;51.380;0.098;2022-10-23T13:31:49;19.30;99.90
66422;DHT22;53228;51.380;0.098;2022-10-23T13:34:22;19.60;99.90
66422;DHT22;53228;51.380;0.098;2022-10-23T13:36:56;19.80;99.90
66422;DHT22;53228;51.380;0.098;2022-10-23T13:39:26;20.00;99.90
66422;DHT22;53228;51.380;0.098;2022-10-23T13:41:54;20.30;99.90
66422;DHT22;53228;51.380;0.098;2022-10-23T13:44:23;20.60;99.90
66422;DHT22;53228;51.380;0.098;2022-10-23T13:46:51;20.90;99.90
66422;DHT22;53228;51.380;0.098;2022-10-23T13:49:19;21.10;99.90
66422;DHT22;53228;51.380;0.098;2022-10-23T13:51:50;21.50;99.90
66422;DHT22;53228;51.380;0.098;2022-10-23T13:54:24;21.70;99.90
66422;DHT22;53228;51.380;0.098;2022-10-23T13:56:53;21.70;99.90
66422;DHT22;53228;51.380;0.098;2022-10-23T13:59:21;21.90;99.90
66422;DHT22;53228;51.380;0.098;2022-10-23T14:01:49;22.10;99.90
66422;DHT22;53228;51.380;0.098;2022-10-23T14:04:18;22.60;99.90
66422;DHT22;53228;51.380;0.098;2022-10-23T14:06:46;22.60;99.90
66422;DHT22;53228;51.380;0.098;2022-10-23T14:09:16;22.90;99.90
66422;DHT22;53228;51.380;0.098;2022-10-23T14:11:47;23.00;99.90
66422;DHT22;53228;51.380;0.098;2022-10-23T14:14:15;23.20;99.90
66422;DHT22;53228;51.380;0.098;2022-10-23T14:16:45;23.10;99.90
66422;DHT22;53228;51.380;0.098;2022-10-23T14:19:13;23.10;99.90
66422;DHT22;53228;51.380;0.098;2022-10-23T14:21:41;23.10;99.90
66422;DHT22;53228;51.380;0.098;2022-10-23T14:24:09;22.20;99.90
66422;DHT22;53228;51.380;0.098;2022-10-23T14:26:37;22.40;99.90
66422;DHT22;53228;51.380;0.098;2022-10-23T14:29:05;22.00;99.90
66422;DHT22;53228;51.380;0.098;2022-10-23T14:31:40;21.80;99.90
66422;DHT22;53228;51.380;0.098;2022-10-23T14:34:08;21.80;99.90
66422;DHT22;53228;51.380;0.098;2022-10-23T14:36:35;21.90;99.90
66422;DHT22;53228;51.380;0.098;2022-10-23T14:39:17;22.00;99.90
66422;DHT22;53228;51.380;0.098;2022-10-23T14:41:44;22.00;99.90
66422;DHT22;53228;51.380;0.098;2022-10-23T14:44:12;22.00;99.90
66422;DHT22;53228;51.380;0.098;2022-10-23T14:46:40;22.10;99.90
66422;DHT22;53228;51.380;0.098;2022-10-23T14:49:07;22.30;99.90
66422;DHT22;53228;51.380;0.098;2022-10-23T14:51:35;22.50;99.90
66422;DHT22;53228;51.380;0.098;2022-10-23T14:54:04;22.50;99.90
66422;DHT22;53228;51.380;0.098;2022-10-23T14:56:33;22.50;99.90
66422;DHT22;53228;51.380;0.098;2022-10-23T14:59:03;22.30;99.90
66422;DHT22;53228;51.380;0.098;2022-10-23T15:01:38;22.00;99.90
66422;DHT22;53228;51.380;0.098;2022-10-23T15:04:12;21.60;99.90
66422;DHT22;53228;51.380;0.098;2022-10-23T15:06:41;21.10;99.90
66422;DHT22;53228;51.380;0.098;2022-10-23T15:09:09;20.70;99.90
66422;DHT22;53228;51.380;0.098;2022-10-23T15:11:37;20.20;99.90
66422;DHT22;53228;51.380;0.098;2022-10-23T15:14:04;19.90;99.90
66422;DHT22;53228;51.380;0.098;2022-10-23T15:16:35;19.60;99.90
66422;DHT22;53228;51.380;0.098;2022-10-23T15:19:09;19.40;99.90
66422;DHT22;53228;51.380;0.098;2022-10-23T15:21:45;19.20;99.90
66422;DHT22;53228;51.380;0.098;2022-10-23T15:24:14;19.10;99.90
66422;DHT22;53228;51.380;0.098;2022-10-23T15:26:42;19.00;99.90
66422;DHT22;53228;51.380;0.098;2022-10-23T15:29:10;18.80;99.90
66422;DHT22;53228;51.380;0.098;2022-10-23T15:31:38;18.70;99.90
66422;DHT22;53228;51.380;0.098;2022-10-23T15:34:15;18.60;99.90
66422;DHT22;53228;51.380;0.098;2022-10-23T15:36:45;18.50;99.90
66422;DHT22;53228;51.380;0.098;2022-10-23T15:39:16;18.40;99.90
66422;DHT22;53228;51.380;0.098;2022-10-23T15:41:44;18.30;99.90
66422;DHT22;53228;51.380;0.098;2022-10-23T15:44:15;18.20;99.90
66422;DHT22;53228;51.380;0.098;2022-10-23T15:46:43;18.20;99.90
66422;DHT22;53228;51.380;0.098;2022-10-23T15:49:11;18.20;99.90
66422;DHT22;53228;51.380;0.098;2022-10-23T15:51:39;18.10;99.90
66422;DHT22;53228;51.380;0.098;2022-10-23T15:54:10;18.00;99.90
66422;DHT22;53228;51.380;0.098;2022-10-23T15:56:39;17.90;99.90
66422;DHT22;53228;51.380;0.098;2022-10-23T16:01:35;17.80;99.90
66422;DHT22;53228;51.380;0.098;2022-10-23T16:04:03;17.80;99.90
66422;DHT22;53228;51.380;0.098;2022-10-23T16:06:31;17.80;99.90
66422;DHT22;53228;51.380;0.098;2022-10-23T16:08:59;17.80;99.90
66422;DHT22;53228;51.380;0.098;2022-10-23T16:11:29;17.70;99.90
66422;DHT22;53228;51.380;0.098;2022-10-23T16:13:58;17.70;99.90
66422;DHT22;53228;51.380;0.098;2022-10-23T16:16:26;17.40;99.90
66422;DHT22;53228;51.380;0.098;2022-10-23T16:18:57;16.90;99.90
66422;DHT22;53228;51.380;0.098;2022-10-23T16:21:27;16.40;99.90
66422;DHT22;53228;51.380;0.098;2022-10-23T16:23:56;15.90;99.90
66422;DHT22;53228;51.380;0.098;2022-10-23T16:26:24;15.60;99.90
66422;DHT22;53228;51.380;0.098;2022-10-23T16:28:53;15.30;99.90
66422;DHT22;53228;51.380;0.098;2022-10-23T16:31:22;15.10;99.90
66422;DHT22;53228;51.380;0.098;2022-10-23T16:33:51;15.10;99.90
66422;DHT22;53228;51.380;0.098;2022-10-23T16:36:19;14.70;99.90
66422;DHT22;53228;51.380;0.098;2022-10-23T16:39:22;14.70;99.90
66422;DHT22;53228;51.380;0.098;2022-10-23T16:42:09;14.50;99.90
66422;DHT22;53228;51.380;0.098;2022-10-23T16:44:54;14.40;99.90
66422;DHT22;53228;51.380;0.098;2022-10-23T16:47:29;14.30;99.90
66422;DHT22;53228;51.380;0.098;2022-10-23T16:49:57;14.30;99.90
66422;DHT22;53228;51.380;0.098;2022-10-23T16:52:26;14.20;99.90
66422;DHT22;53228;51.380;0.098;2022-10-23T16:54:53;14.30;99.90
66422;DHT22;53228;51.380;0.098;2022-10-23T16:57:21;14.30;99.90
66422;DHT22;53228;51.380;0.098;2022-10-23T16:59:48;14.60;99.90
66422;DHT22;53228;51.380;0.098;2022-10-23T17:02:16;14.20;99.90
66422;DHT22;53228;51.380;0.098;2022-10-23T17:04:44;14.30;99.90
66422;DHT22;53228;51.380;0.098;2022-10-23T17:07:11;14.30;99.90
66422;DHT22;53228;51.380;0.098;2022-10-23T17:09:39;14.20;99.90
66422;DHT22;53228;51.380;0.098;2022-10-23T17:12:07;14.20;99.90
66422;DHT22;53228;51.380;0.098;2022-10-23T17:14:35;14.20;99.90
66422;DHT22;53228;51.380;0.098;2022-10-23T17:17:04;14.10;99.90
66422;DHT22;53228;51.380;0.098;2022-10-23T17:19:33;14.10;99.90
66422;DHT22;53228;51.380;0.098;2022-10-23T17:22:16;14.10;99.90
66422;DHT22;53228;51.380;0.098;2022-10-23T17:24:43;14.10;99.90
66422;DHT22;53228;51.380;0.098;2022-10-23T17:27:16;14.90;99.90
66422;DHT22;53228;51.380;0.098;2022-10-23T17:29:44;14.00;99.90
66422;DHT22;53228;51.380;0.098;2022-10-23T17:32:11;14.10;99.90
66422;DHT22;53228;51.380;0.098;2022-10-23T17:34:39;14.10;99.90
66422;DHT22;53228;51.380;0.098;2022-10-23T17:37:06;14.00;99.90
66422;DHT22;53228;51.380;0.098;2022-10-23T17:39:34;15.60;99.90
66422;DHT22;53228;51.380;0.098;2022-10-23T17:42:01;14.10;99.90
66422;DHT22;53228;51.380;0.098;2022-10-23T17:44:29;14.00;99.90
66422;DHT22;53228;51.380;0.098;2022-10-23T17:46:56;14.80;99.90
66422;DHT22;53228;51.380;0.098;2022-10-23T17:49:24;14.00;99.90
66422;DHT22;53228;51.380;0.098;2022-10-23T17:51:53;14.00;99.90
66422;DHT22;53228;51.380;0.098;2022-10-23T17:54:23;14.00;99.90
66422;DHT22;53228;51.380;0.098;2022-10-23T17:56:51;14.00;99.90
66422;DHT22;53228;51.380;0.098;2022-10-23T17:59:18;14.00;99.90
66422;DHT22;53228;51.380;0.098;2022-10-23T18:01:47;14.00;99.90
66422;DHT22;53228;51.380;0.098;2022-10-23T18:04:17;14.10;99.90
66422;DHT22;53228;51.380;0.098;2022-10-23T18:06:48;14.00;99.90
66422;DHT22;53228;51.380;0.098;2022-10-23T18:09:17;14.00;99.90